createdAt,value
2019-02-02T00:00:23.955Z,84.09
2019-02-02T00:02:51.374Z,84.22
2019-02-02T00:05:18.791Z,84.21
2019-02-02T00:07:46.202Z,84.34
2019-02-02T00:10:13.627Z,84.39
2019-02-02T00:12:41.077Z,84.64
2019-02-02T00:15:08.475Z,84.67
2019-02-02T00:17:35.889Z,84.51
2019-02-02T00:20:03.289Z,84.58
2019-02-02T00:22:30.687Z,84.57
2019-02-02T00:24:58.084Z,84.72
2019-02-02T00:27:25.482Z,84.40
2019-02-02T00:29:52.886Z,84.32
2019-02-02T00:32:20.298Z,84.35
2019-02-02T00:34:47.780Z,84.22
2019-02-02T00:37:15.179Z,84.41
2019-02-02T00:39:42.595Z,84.24
2019-02-02T00:42:09.978Z,84.22
2019-02-02T00:44:37.372Z,84.35
2019-02-02T00:47:04.821Z,83.98
2019-02-02T00:49:32.219Z,84.08
2019-02-02T00:51:59.864Z,83.83
2019-02-02T00:54:27.267Z,83.59
2019-02-02T00:56:54.843Z,83.68
2019-02-02T00:59:22.303Z,83.55
2019-02-02T01:01:49.758Z,83.56
2019-02-02T01:04:17.153Z,83.71
2019-02-02T01:06:44.542Z,83.74
2019-02-02T01:09:11.951Z,83.77
2019-02-02T01:11:39.354Z,83.67
2019-02-02T01:14:06.774Z,83.48
2019-02-02T01:16:34.167Z,83.32
2019-02-02T01:19:01.573Z,83.51
2019-02-02T01:21:28.977Z,83.70
2019-02-02T01:23:56.400Z,83.80
2019-02-02T01:26:23.829Z,83.75
2019-02-02T01:28:51.211Z,83.70
2019-02-02T01:31:18.610Z,83.51
2019-02-02T01:33:46.010Z,83.51
2019-02-02T01:36:13.419Z,83.36
2019-02-02T01:38:40.823Z,83.45
2019-02-02T01:41:08.247Z,83.59
2019-02-02T01:43:35.725Z,83.87
2019-02-02T01:46:03.138Z,83.90
2019-02-02T01:48:30.540Z,83.74
2019-02-02T01:50:57.948Z,83.62
2019-02-02T01:53:25.374Z,83.80
2019-02-02T01:55:52.802Z,83.96
2019-02-02T01:58:20.199Z,84.10
2019-02-02T02:00:47.601Z,84.25
2019-02-02T02:03:14.995Z,84.30
2019-02-02T02:05:42.405Z,84.35
2019-02-02T02:08:09.815Z,84.37
2019-02-02T02:10:37.243Z,84.40
2019-02-02T02:13:04.655Z,84.53
2019-02-02T02:15:32.052Z,84.58
2019-02-02T02:17:59.480Z,84.68
2019-02-02T02:20:26.886Z,84.65
2019-02-02T02:22:54.576Z,84.54
2019-02-02T02:25:21.957Z,84.36
2019-02-02T02:27:49.357Z,84.35
2019-02-02T02:30:19.474Z,84.08
2019-02-02T02:32:46.869Z,83.92
2019-02-02T02:35:14.308Z,83.93
2019-02-02T02:37:41.822Z,83.83
2019-02-02T02:40:09.214Z,83.73
2019-02-02T02:42:36.621Z,83.77
2019-02-02T02:45:04.024Z,84.01
2019-02-02T02:47:31.437Z,84.12
2019-02-02T02:49:58.860Z,84.15
2019-02-02T02:52:26.364Z,83.91
2019-02-02T02:54:53.757Z,83.81
2019-02-02T02:57:21.285Z,83.86
2019-02-02T02:59:48.662Z,83.49
2019-02-02T03:02:16.084Z,83.42
2019-02-02T03:04:43.623Z,83.74
2019-02-02T03:07:11.056Z,83.87
2019-02-02T03:09:38.434Z,83.74
2019-02-02T03:12:05.849Z,83.93
2019-02-02T03:14:33.282Z,83.98
2019-02-02T03:17:00.683Z,84.19
2019-02-02T03:19:28.201Z,84.26
2019-02-02T03:21:55.608Z,84.63
2019-02-02T03:24:23.013Z,84.65
2019-02-02T03:26:50.413Z,84.78
2019-02-02T03:29:17.814Z,84.86
2019-02-02T03:31:48.400Z,84.76
2019-02-02T03:34:13.551Z,84.85
2019-02-02T03:36:40.936Z,84.85
2019-02-02T03:39:09.409Z,84.78
2019-02-02T03:41:36.817Z,84.58
2019-02-02T03:44:04.371Z,84.63
2019-02-02T03:46:31.775Z,84.54
2019-02-02T03:48:59.216Z,84.67
2019-02-02T03:51:26.679Z,84.80
2019-02-02T03:53:54.095Z,84.54
2019-02-02T03:56:21.482Z,84.52
2019-02-02T03:58:48.909Z,84.63
2019-02-02T04:01:16.312Z,84.70
2019-02-02T04:03:43.724Z,84.79
2019-02-02T04:06:11.129Z,84.92
2019-02-02T04:08:38.741Z,84.85
2019-02-02T04:11:06.127Z,84.96
2019-02-02T04:13:33.879Z,84.89
2019-02-02T04:16:01.349Z,84.72
2019-02-02T04:18:28.805Z,84.29
2019-02-02T04:20:56.209Z,84.44
2019-02-02T04:23:24.317Z,84.64
2019-02-02T04:25:51.731Z,84.69
2019-02-02T04:28:19.262Z,84.67
2019-02-02T04:30:46.706Z,84.92
2019-02-02T04:33:14.166Z,84.97
2019-02-02T04:35:41.625Z,84.86
2019-02-02T04:38:09.006Z,84.66
2019-02-02T04:40:36.538Z,84.54
2019-02-02T04:43:04.040Z,85.00
2019-02-02T04:45:31.451Z,85.20
2019-02-02T04:47:58.923Z,85.77
2019-02-02T04:50:26.369Z,85.74
2019-02-02T04:52:53.786Z,86.21
2019-02-02T04:55:21.190Z,86.35
2019-02-02T04:57:48.597Z,86.52
2019-02-02T05:00:16.886Z,86.50
2019-02-02T05:02:44.436Z,86.34
2019-02-02T05:05:11.832Z,86.41
2019-02-02T05:07:39.407Z,86.49
2019-02-02T05:10:07.518Z,86.34
2019-02-02T05:12:34.919Z,86.57
2019-02-02T05:15:02.375Z,86.42
2019-02-02T05:17:30.118Z,86.51
2019-02-02T05:19:57.979Z,86.54
2019-02-02T05:22:25.421Z,86.53
2019-02-02T05:24:53.060Z,86.44
2019-02-02T05:27:20.456Z,86.61
2019-02-02T05:29:48.246Z,86.11
2019-02-02T05:32:15.653Z,85.95
2019-02-02T05:34:43.075Z,86.19
2019-02-02T05:37:10.483Z,86.45
2019-02-02T05:39:37.905Z,86.92
2019-02-02T05:42:05.454Z,86.79
2019-02-02T05:44:32.886Z,87.00
2019-02-02T05:47:00.345Z,86.99
2019-02-02T05:49:27.744Z,87.00
2019-02-02T05:51:55.325Z,86.86
2019-02-02T05:54:22.925Z,86.78
2019-02-02T05:56:50.395Z,86.78
2019-02-02T05:59:17.847Z,86.77
2019-02-02T06:01:45.235Z,86.88
2019-02-02T06:04:12.817Z,86.56
2019-02-02T06:06:40.169Z,86.45
2019-02-02T06:09:07.592Z,86.46
2019-02-02T06:11:35.014Z,86.30
2019-02-02T06:14:02.412Z,86.25
2019-02-02T06:16:30.042Z,86.54
2019-02-02T06:18:57.429Z,86.68
2019-02-02T06:21:24.864Z,86.55
2019-02-02T06:23:52.370Z,86.37
2019-02-02T06:26:20.661Z,85.83
2019-02-02T06:28:48.063Z,86.00
2019-02-02T06:31:15.617Z,86.09
2019-02-02T06:33:43.075Z,86.60
2019-02-02T06:36:10.531Z,86.46
2019-02-02T06:38:37.927Z,86.76
2019-02-02T06:41:05.341Z,87.48
2019-02-02T06:43:32.731Z,87.83
2019-02-02T06:46:00.155Z,87.83
2019-02-02T06:48:27.586Z,87.58
2019-02-02T06:50:54.974Z,88.04
2019-02-02T06:53:22.406Z,87.73
2019-02-02T06:55:49.806Z,87.61
2019-02-02T06:58:17.451Z,87.66
2019-02-02T07:00:45.201Z,87.72
2019-02-02T07:03:12.597Z,87.99
2019-02-02T07:05:40.009Z,88.03
2019-02-02T07:08:07.723Z,87.71
2019-02-02T07:10:35.191Z,87.34
2019-02-02T07:13:03.031Z,87.42
2019-02-02T07:15:30.529Z,87.27
2019-02-02T07:17:58.952Z,87.28
2019-02-02T07:20:26.416Z,87.07
2019-02-02T07:22:53.881Z,86.86
2019-02-02T07:25:21.304Z,86.64
2019-02-02T07:27:48.686Z,86.89
2019-02-02T07:30:28.597Z,86.86
2019-02-02T07:32:52.598Z,86.85
2019-02-02T07:35:20.098Z,86.53
2019-02-02T07:37:47.489Z,86.46
2019-02-02T07:40:14.899Z,86.46
2019-02-02T07:42:42.407Z,86.45
2019-02-02T07:45:09.936Z,86.23
2019-02-02T07:47:37.439Z,86.03
2019-02-02T07:50:04.894Z,85.80
2019-02-02T07:52:33.247Z,85.89
2019-02-02T07:55:00.772Z,86.08
2019-02-02T07:57:28.184Z,86.03
2019-02-02T07:59:55.586Z,86.06
2019-02-02T08:02:23.011Z,85.44
2019-02-02T08:04:50.497Z,85.45
2019-02-02T08:07:18.205Z,85.74
2019-02-02T08:09:45.632Z,85.70
2019-02-02T08:12:13.237Z,85.37
2019-02-02T08:14:40.626Z,85.53
2019-02-02T08:17:08.047Z,85.76
2019-02-02T08:19:35.448Z,85.36
2019-02-02T08:22:03.069Z,85.44
2019-02-02T08:24:30.828Z,85.12
2019-02-02T08:26:58.295Z,85.15
2019-02-02T08:29:25.820Z,85.31
2019-02-02T08:31:53.274Z,85.51
2019-02-02T08:34:20.656Z,85.04
2019-02-02T08:36:48.063Z,85.44
2019-02-02T08:39:15.481Z,85.42
2019-02-02T08:41:42.937Z,85.30
2019-02-02T08:44:10.443Z,85.14
2019-02-02T08:46:38.592Z,85.06
2019-02-02T08:49:06.397Z,85.00
2019-02-02T08:51:33.803Z,84.98
2019-02-02T08:54:03.355Z,85.13
2019-02-02T08:56:28.671Z,84.83
2019-02-02T08:58:56.090Z,84.76
2019-02-02T09:01:23.526Z,84.94
2019-02-02T09:03:50.937Z,84.92
2019-02-02T09:06:18.877Z,84.81
2019-02-02T09:08:46.273Z,84.72
2019-02-02T09:11:13.854Z,84.95
2019-02-02T09:13:41.430Z,85.20
2019-02-02T09:16:08.834Z,85.11
2019-02-02T09:18:36.228Z,85.23
2019-02-02T09:21:03.678Z,85.21
2019-02-02T09:23:31.068Z,84.74
2019-02-02T09:25:58.536Z,84.73
2019-02-02T09:28:25.934Z,84.85
2019-02-02T09:30:53.328Z,84.63
2019-02-02T09:33:20.774Z,84.67
2019-02-02T09:35:48.175Z,84.51
2019-02-02T09:38:15.627Z,84.43
2019-02-02T09:40:43.284Z,84.35
2019-02-02T09:43:10.706Z,84.28
2019-02-02T09:45:38.445Z,83.80
2019-02-02T09:48:05.870Z,83.65
2019-02-02T09:50:33.276Z,83.62
2019-02-02T09:53:00.669Z,83.21
2019-02-02T09:55:28.072Z,83.57
2019-02-02T09:57:55.681Z,84.29
2019-02-02T10:00:23.709Z,84.79
2019-02-02T10:02:51.133Z,84.92
2019-02-02T10:05:19.186Z,84.51
2019-02-02T10:07:45.992Z,84.56
2019-02-02T10:10:14.862Z,84.48
2019-02-02T10:12:42.275Z,84.58
2019-02-02T10:15:09.688Z,84.54
2019-02-02T10:17:37.274Z,84.49
2019-02-02T10:20:04.674Z,84.62
2019-02-02T10:22:32.445Z,84.44
2019-02-02T10:24:59.862Z,84.68
2019-02-02T10:27:27.259Z,85.27
2019-02-02T10:29:54.793Z,85.24
2019-02-02T10:32:22.166Z,85.09
2019-02-02T10:34:49.576Z,84.53
2019-02-02T10:37:17.128Z,84.24
2019-02-02T10:39:44.526Z,84.11
2019-02-02T10:42:11.955Z,83.98
2019-02-02T10:44:39.414Z,83.71
2019-02-02T10:47:06.829Z,83.52
2019-02-02T10:49:34.310Z,84.02
2019-02-02T10:52:01.709Z,84.45
2019-02-02T10:54:29.140Z,84.51
2019-02-02T10:56:56.535Z,84.37
2019-02-02T10:59:24.015Z,83.98
2019-02-02T11:01:51.508Z,83.54
2019-02-02T11:04:19.001Z,83.48
2019-02-02T11:06:46.457Z,83.40
2019-02-02T11:09:13.920Z,83.04
2019-02-02T11:11:41.351Z,82.80
2019-02-02T11:14:08.870Z,82.99
2019-02-02T11:16:36.287Z,82.96
2019-02-02T11:19:03.773Z,83.13
2019-02-02T11:21:31.102Z,83.31
2019-02-02T11:23:58.458Z,83.21
2019-02-02T11:26:25.901Z,82.87
2019-02-02T11:28:53.446Z,83.15
2019-02-02T11:31:20.894Z,83.02
2019-02-02T11:33:48.551Z,83.16
2019-02-02T11:36:16.061Z,83.18
2019-02-02T11:38:43.515Z,82.91
2019-02-02T11:41:10.925Z,82.59
2019-02-02T11:43:38.871Z,82.63
2019-02-02T11:46:06.449Z,82.34
2019-02-02T11:48:33.882Z,81.86
2019-02-02T11:51:01.454Z,81.73
2019-02-02T11:53:28.847Z,81.51
2019-02-02T11:55:56.268Z,81.46
2019-02-02T11:58:23.718Z,81.48
2019-02-02T12:00:51.117Z,81.51
2019-02-02T12:03:18.567Z,81.67
2019-02-02T12:05:45.984Z,81.98
2019-02-02T12:08:13.379Z,82.39
2019-02-02T12:10:40.901Z,82.24
2019-02-02T12:13:08.288Z,82.46
2019-02-02T12:15:36.023Z,82.50
2019-02-02T12:18:03.454Z,82.60
2019-02-02T12:20:33.283Z,82.74
2019-02-02T12:22:58.806Z,82.82
2019-02-02T12:25:26.221Z,82.74
2019-02-02T12:27:53.648Z,83.41
2019-02-02T12:30:24.352Z,84.22
2019-02-02T12:32:51.799Z,84.03
2019-02-02T12:35:30.453Z,83.87
2019-02-02T12:37:57.888Z,84.04
2019-02-02T12:40:25.286Z,84.25
2019-02-02T12:42:52.810Z,84.20
2019-02-02T12:45:24.392Z,84.13
2019-02-02T12:47:51.816Z,83.37
2019-02-02T12:50:19.376Z,83.21
2019-02-02T12:52:46.788Z,82.99
2019-02-02T12:55:14.239Z,82.67
2019-02-02T12:57:41.649Z,82.65
2019-02-02T13:00:12.410Z,82.87
2019-02-02T13:02:39.830Z,82.71
2019-02-02T13:05:07.308Z,82.99
2019-02-02T13:07:34.934Z,83.02
2019-02-02T13:10:02.334Z,83.21
2019-02-02T13:12:29.756Z,83.29
2019-02-02T13:14:57.245Z,83.47
2019-02-02T13:17:24.762Z,83.40
2019-02-02T13:19:52.299Z,82.86
2019-02-02T13:22:19.576Z,83.20
2019-02-02T13:24:47.102Z,83.72
2019-02-02T13:27:15.442Z,83.78
2019-02-02T13:29:42.985Z,83.49
2019-02-02T13:32:10.521Z,83.72
2019-02-02T13:34:37.920Z,83.73
2019-02-02T13:37:05.520Z,83.88
2019-02-02T13:39:32.968Z,83.92
2019-02-02T13:42:00.704Z,84.12
2019-02-02T13:44:28.110Z,84.03
2019-02-02T13:46:55.510Z,84.00
2019-02-02T13:49:24.003Z,83.79
2019-02-02T13:51:51.419Z,83.96
2019-02-02T13:54:18.819Z,83.49
2019-02-02T13:56:46.378Z,83.60
2019-02-02T13:59:13.832Z,83.74
2019-02-02T14:01:42.405Z,83.80
2019-02-02T14:04:09.235Z,83.46
2019-02-02T14:06:36.804Z,82.98
2019-02-02T14:09:04.296Z,82.96
2019-02-02T14:11:31.816Z,83.14
2019-02-02T14:13:59.288Z,83.54
2019-02-02T14:16:26.683Z,83.69
2019-02-02T14:18:54.207Z,84.20
2019-02-02T14:21:22.074Z,84.31
2019-02-02T14:23:49.485Z,84.46
2019-02-02T14:26:17.022Z,84.42
2019-02-02T14:28:44.434Z,84.30
2019-02-02T14:31:11.818Z,84.25
2019-02-02T14:33:39.232Z,83.92
2019-02-02T14:36:06.626Z,83.81
2019-02-02T14:38:34.137Z,83.84
2019-02-02T14:41:01.544Z,84.12
2019-02-02T14:43:29.169Z,84.34
2019-02-02T14:45:56.668Z,84.25
2019-02-02T14:48:24.916Z,83.86
2019-02-02T14:50:52.366Z,83.60
2019-02-02T14:53:19.834Z,83.44
2019-02-02T14:55:47.245Z,83.09
2019-02-02T14:58:14.736Z,83.06
2019-02-02T15:00:42.146Z,83.07
2019-02-02T15:03:09.558Z,83.04
2019-02-02T15:05:43.178Z,83.08
2019-02-02T15:08:05.098Z,82.94
2019-02-02T15:10:32.527Z,82.63
2019-02-02T15:13:00.062Z,82.54
2019-02-02T15:15:27.835Z,82.64
2019-02-02T15:17:55.235Z,82.83
2019-02-02T15:20:24.406Z,83.01
2019-02-02T15:22:51.853Z,83.00
2019-02-02T15:25:19.260Z,82.97
2019-02-02T15:27:46.674Z,83.02
2019-02-02T15:30:16.561Z,83.31
2019-02-02T15:32:44.055Z,83.35
2019-02-02T15:35:14.101Z,83.52
2019-02-02T15:37:38.957Z,83.62
2019-02-02T15:40:06.698Z,83.85
2019-02-02T15:42:34.234Z,83.94
2019-02-02T15:45:01.628Z,83.95
2019-02-02T15:47:29.024Z,83.62
2019-02-02T15:49:56.423Z,83.60
2019-02-02T15:52:23.836Z,83.58
2019-02-02T15:54:51.266Z,83.33
2019-02-02T15:57:18.675Z,83.14
2019-02-02T15:59:46.346Z,83.25
2019-02-02T16:02:13.763Z,83.22
2019-02-02T16:04:41.176Z,83.37
2019-02-02T16:07:08.645Z,83.38
2019-02-02T16:09:36.059Z,83.48
2019-02-02T16:12:03.469Z,83.37
2019-02-02T16:14:30.941Z,83.44
2019-02-02T16:16:58.373Z,83.21
2019-02-02T16:19:25.791Z,83.06
2019-02-02T16:21:53.210Z,83.03
2019-02-02T16:24:20.651Z,82.70
2019-02-02T16:26:48.724Z,82.66
2019-02-02T16:29:15.519Z,82.67
2019-02-02T16:31:42.926Z,82.80
2019-02-02T16:34:10.341Z,82.88
2019-02-02T16:36:38.019Z,82.85
2019-02-02T16:39:05.523Z,83.20
2019-02-02T16:41:32.996Z,83.38
2019-02-02T16:44:00.492Z,83.46
2019-02-02T16:46:28.001Z,83.55
2019-02-02T16:48:55.431Z,83.81
2019-02-02T16:51:22.871Z,83.38
2019-02-02T16:53:50.281Z,83.54
2019-02-02T16:56:17.760Z,83.65
2019-02-02T16:58:45.689Z,83.58
2019-02-02T17:01:13.110Z,83.50
2019-02-02T17:03:40.595Z,83.52
2019-02-02T17:06:08.051Z,83.61
2019-02-02T17:08:35.456Z,83.59
2019-02-02T17:11:02.868Z,83.34
2019-02-02T17:13:30.310Z,83.15
2019-02-02T17:15:57.744Z,83.12
2019-02-02T17:18:25.163Z,83.25
2019-02-02T17:20:52.613Z,83.61
2019-02-02T17:23:20.684Z,83.30
2019-02-02T17:25:48.141Z,83.12
2019-02-02T17:28:15.566Z,83.32
2019-02-02T17:30:42.969Z,83.19
2019-02-02T17:33:10.419Z,83.14
2019-02-02T17:35:37.960Z,83.21
2019-02-02T17:38:05.385Z,83.27
2019-02-02T17:40:32.831Z,83.33
2019-02-02T17:43:00.264Z,83.44
2019-02-02T17:45:27.799Z,83.20
2019-02-02T17:47:55.212Z,83.07
2019-02-02T17:50:23.440Z,83.08
2019-02-02T17:52:51.127Z,83.02
2019-02-02T17:55:19.056Z,83.01
2019-02-02T17:57:46.504Z,83.04
2019-02-02T18:00:17.107Z,83.08
2019-02-02T18:02:45.490Z,83.09
2019-02-02T18:05:12.895Z,82.77
2019-02-02T18:07:40.330Z,82.64
2019-02-02T18:10:11.316Z,82.69
2019-02-02T18:12:38.818Z,82.77
2019-02-02T18:15:06.211Z,82.83
2019-02-02T18:17:33.633Z,82.67
2019-02-02T18:20:01.103Z,82.76
2019-02-02T18:22:28.550Z,82.65
2019-02-02T18:24:55.983Z,82.78
2019-02-02T18:27:23.383Z,82.99
2019-02-02T18:29:50.814Z,82.92
2019-02-02T18:32:18.279Z,83.04
2019-02-02T18:34:51.355Z,82.88
2019-02-02T18:37:13.184Z,82.70
2019-02-02T18:39:40.615Z,82.67
2019-02-02T18:42:08.140Z,82.35
2019-02-02T18:44:35.844Z,82.20
2019-02-02T18:47:03.513Z,82.54
2019-02-02T18:49:31.027Z,82.68
2019-02-02T18:51:58.428Z,83.19
2019-02-02T18:54:25.856Z,83.24
2019-02-02T18:56:53.288Z,83.35
2019-02-02T18:59:20.711Z,83.45
2019-02-02T19:01:48.162Z,83.06
2019-02-02T19:04:15.606Z,83.28
2019-02-02T19:06:43.175Z,83.29
2019-02-02T19:09:10.601Z,83.31
2019-02-02T19:11:38.002Z,82.70
2019-02-02T19:14:05.399Z,82.93
2019-02-02T19:16:32.813Z,83.08
2019-02-02T19:19:00.371Z,82.90
2019-02-02T19:21:27.953Z,82.68
2019-02-02T19:23:55.501Z,82.84
2019-02-02T19:26:22.939Z,82.79
2019-02-02T19:28:50.406Z,82.79
2019-02-02T19:31:17.895Z,82.77
2019-02-02T19:33:45.362Z,83.08
2019-02-02T19:36:12.910Z,83.11
2019-02-02T19:38:40.310Z,83.01
2019-02-02T19:41:07.717Z,83.06
2019-02-02T19:43:35.124Z,83.08
2019-02-02T19:46:02.555Z,83.08
2019-02-02T19:48:29.948Z,83.19
2019-02-02T19:50:57.397Z,83.29
2019-02-02T19:53:24.818Z,83.41
2019-02-02T19:55:52.243Z,83.51
2019-02-02T19:58:19.736Z,83.31
2019-02-02T20:00:47.189Z,83.36
2019-02-02T20:03:15.467Z,83.34
2019-02-02T20:05:42.910Z,83.59
2019-02-02T20:08:10.337Z,83.67
2019-02-02T20:10:37.744Z,83.39
2019-02-02T20:13:05.233Z,83.47
2019-02-02T20:15:32.587Z,83.56
2019-02-02T20:18:09.383Z,83.74
2019-02-02T20:20:27.428Z,83.75
2019-02-02T20:22:54.828Z,84.03
2019-02-02T20:25:22.314Z,84.12
2019-02-02T20:27:49.691Z,84.41
2019-02-02T20:30:19.742Z,84.72
2019-02-02T20:32:47.186Z,84.47
2019-02-02T20:35:14.595Z,84.24
2019-02-02T20:37:42.083Z,84.46
2019-02-02T20:40:10.162Z,84.56
2019-02-02T20:42:37.649Z,84.49
2019-02-02T20:45:05.209Z,84.51
2019-02-02T20:47:32.652Z,84.60
2019-02-02T20:50:00.101Z,84.46
2019-02-02T20:52:27.525Z,84.45
2019-02-02T20:54:54.994Z,84.98
2019-02-02T20:57:22.440Z,84.78
2019-02-02T20:59:49.873Z,84.64
2019-02-02T21:02:17.861Z,84.70
2019-02-02T21:04:45.346Z,84.44
2019-02-02T21:07:12.758Z,84.28
2019-02-02T21:09:40.171Z,84.64
2019-02-02T21:12:07.610Z,84.46
2019-02-02T21:14:35.010Z,84.32
2019-02-02T21:17:02.433Z,84.12
2019-02-02T21:19:29.834Z,83.90
2019-02-02T21:21:57.335Z,83.87
2019-02-02T21:24:24.737Z,83.87
2019-02-02T21:26:52.256Z,83.94
2019-02-02T21:29:19.934Z,83.86
2019-02-02T21:31:47.094Z,83.49
2019-02-02T21:34:14.623Z,83.28
2019-02-02T21:36:43.105Z,83.23
2019-02-02T21:39:10.517Z,83.08
2019-02-02T21:41:38.020Z,83.17
2019-02-02T21:44:05.456Z,82.82
2019-02-02T21:46:32.861Z,82.54
2019-02-02T21:49:00.389Z,82.05
2019-02-02T21:51:27.817Z,81.84
2019-02-02T21:53:55.246Z,81.89
2019-02-02T21:56:22.673Z,81.88
2019-02-02T21:58:50.070Z,81.59
2019-02-02T22:01:24.138Z,81.68
2019-02-02T22:03:44.947Z,81.51
2019-02-02T22:06:15.597Z,81.11
2019-02-02T22:08:40.003Z,80.87
2019-02-02T22:11:07.429Z,81.59
2019-02-02T22:13:35.361Z,81.31
2019-02-02T22:16:02.823Z,81.32
2019-02-02T22:18:30.231Z,81.31
2019-02-02T22:20:57.670Z,80.99
2019-02-02T22:23:25.079Z,81.11
2019-02-02T22:25:52.640Z,80.88
2019-02-02T22:28:20.061Z,81.16
2019-02-02T22:30:47.601Z,81.08
2019-02-02T22:33:14.991Z,80.86
2019-02-02T22:35:42.430Z,80.30
2019-02-02T22:38:09.925Z,79.33
2019-02-02T22:40:37.404Z,78.82
2019-02-02T22:43:04.841Z,79.02
2019-02-02T22:45:32.242Z,78.95
2019-02-02T22:47:59.814Z,78.80
2019-02-02T22:50:27.242Z,79.10
2019-02-02T22:52:54.719Z,78.98
2019-02-02T22:55:22.501Z,79.18
2019-02-02T22:57:49.923Z,79.25
2019-02-02T23:00:24.969Z,79.61
2019-02-02T23:02:53.389Z,79.60
2019-02-02T23:05:24.272Z,79.82
2019-02-02T23:07:51.673Z,79.46
2019-02-02T23:10:20.090Z,79.53
2019-02-02T23:12:57.022Z,79.27
2019-02-02T23:15:32.472Z,79.15
2019-02-02T23:17:59.985Z,79.38
2019-02-02T23:20:27.376Z,78.98
2019-02-02T23:22:54.802Z,78.88
2019-02-02T23:25:22.190Z,78.84
2019-02-02T23:27:49.600Z,78.56
2019-02-02T23:30:17.336Z,79.52
2019-02-02T23:32:44.716Z,79.60
2019-02-02T23:35:12.470Z,79.60
2019-02-02T23:37:40.033Z,79.38
2019-02-02T23:40:15.283Z,79.40
2019-02-02T23:42:42.683Z,79.39
2019-02-02T23:45:10.083Z,79.11
2019-02-02T23:47:37.551Z,79.46
2019-02-02T23:50:05.618Z,79.22
2019-02-02T23:52:33.027Z,79.68
2019-02-02T23:55:00.431Z,79.84
2019-02-02T23:57:27.841Z,80.02
2019-02-02T23:59:55.239Z,80.20
